Terminal Aerodrome Forecast
Issued by NWS Twin Cities, MN

Home | Current Version | Previous Version | Graphics & Text | Print | Product List | Glossary On
Versions: 1 2 3 4 5 6 7 8 9 10 11 12 13 14 15 16 17 18 19 20
000
FTUS43 KMPX 301700
TAFEAU
TAF
KEAU 301720Z 3018/3118 34008KT P6SM SCT015 BKN025 BKN040
     FM302300 34006KT P6SM SCT025 BKN035
     FM310600 VRB02KT 3SM BR SKC
     FM310800 14002KT 1/4SM FG VV002
     FM311400 14007KT 6SM BR FEW012=

USA.gov is the U.S. government's official web portal to all federal, state and local government web resources and services.